Time;durP1;ratioP1;P1;durP2;ratioP2;P2;SDS_P1;SDS_P2;PMS_P1;PMS_P2;Temp;Humidity;BMP_temperature;BMP_pressure;BME280_temperature;BME280_humidity;BME280_pressure;Samples;Min_cycle;Max_cycle;Signal;HPM_P1;HPM_P2
2023/10/05 00:02:08;;;;;;;11.15;2.15;;;;;;;;;;5034317;28;20033;-64
2023/10/05 00:04:40;;;;;;;11.57;2.30;;;;;;;;;;5051387;28;20048;-64
2023/10/05 00:07:26;;;;;;;9.35;1.80;;;;;;;;;;5051944;28;20273;-64
2023/10/05 00:09:53;;;;;;;12.18;2.00;;;;;;;;;;5051916;28;20403;-64
2023/10/05 00:12:20;;;;;;;6.32;1.80;;;;;;;;;;5051378;28;20049;-64
2023/10/05 00:15:31;;;;;;;6.55;1.75;;;;;;;;;;5051720;28;20047;-64
2023/10/05 00:17:39;;;;;;;8.73;2.42;;;;;;;;;;5031398;28;20046;-64
2023/10/05 00:20:13;;;;;;;10.63;2.40;;;;;;;;;;5031148;28;20052;-64
2023/10/05 00:22:43;;;;;;;6.88;2.40;;;;;;;;;;5031852;28;20131;-64
2023/10/05 00:25:10;;;;;;;4.38;2.00;;;;;;;;;;5033534;28;20089;-64
2023/10/05 00:27:36;;;;;;;12.82;2.05;;;;;;;;;;5050906;28;20101;-64
2023/10/05 00:30:02;;;;;;;9.40;1.92;;;;;;;;;;5051471;28;20041;-64
2023/10/05 00:32:35;;;;;;;9.32;2.60;;;;;;;;;;5051424;28;20040;-64
2023/10/05 00:35:20;;;;;;;9.68;2.40;;;;;;;;;;5051011;28;20051;-64
2023/10/05 00:37:48;;;;;;;9.30;2.13;;;;;;;;;;5051235;28;20123;-64
2023/10/05 00:40:33;;;;;;;10.10;2.28;;;;;;;;;;5051117;28;20049;-64
2023/10/05 00:43:04;;;;;;;7.47;2.10;;;;;;;;;;5051178;28;20124;-64
2023/10/05 00:45:31;;;;;;;13.27;2.30;;;;;;;;;;5051312;28;20550;-64
2023/10/05 00:48:08;;;;;;;8.55;2.47;;;;;;;;;;5050121;28;20404;-64
2023/10/05 00:50:35;;;;;;;10.98;2.05;;;;;;;;;;5051017;28;20124;-64
2023/10/05 00:53:01;;;;;;;8.07;1.90;;;;;;;;;;5050909;28;20048;-64
2023/10/05 00:55:28;;;;;;;7.43;1.92;;;;;;;;;;5050636;28;20053;-64
2023/10/05 00:57:54;;;;;;;11.50;2.13;;;;;;;;;;5050763;28;20049;-64
2023/10/05 01:00:27;;;;;;;13.25;2.67;;;;;;;;;;5033123;28;20048;-64
2023/10/05 01:03:16;;;;;;;6.50;1.85;;;;;;;;;;5050884;28;20068;-64
2023/10/05 01:06:11;;;;;;;6.50;1.92;;;;;;;;;;5050573;28;20357;-64
2023/10/05 01:08:49;;;;;;;6.38;1.80;;;;;;;;;;5050916;28;20068;-64
2023/10/05 01:11:19;;;;;;;7.63;1.90;;;;;;;;;;5050385;28;20036;-64
2023/10/05 01:13:45;;;;;;;9.07;2.42;;;;;;;;;;5032445;28;20061;-64
2023/10/05 01:16:19;;;;;;;7.45;2.17;;;;;;;;;;5050468;28;20045;-64
2023/10/05 01:18:45;;;;;;;8.98;2.10;;;;;;;;;;5030022;28;20052;-64
2023/10/05 01:21:11;;;;;;;7.65;2.08;;;;;;;;;;5030662;28;20052;-64
2023/10/05 01:23:38;;;;;;;11.48;2.60;;;;;;;;;;5030669;28;20076;-64
2023/10/05 01:26:10;;;;;;;7.05;1.92;;;;;;;;;;5039537;28;20438;-64
2023/10/05 01:28:36;;;;;;;7.13;2.40;;;;;;;;;;5050422;28;20044;-64
2023/10/05 01:31:07;;;;;;;6.32;1.90;;;;;;;;;;5050030;28;20049;-64
2023/10/05 01:33:33;;;;;;;11.25;1.98;;;;;;;;;;5049968;28;20056;-64
2023/10/05 01:35:59;;;;;;;8.50;2.47;;;;;;;;;;5050042;28;20494;-64
2023/10/05 01:38:27;;;;;;;10.77;2.45;;;;;;;;;;5050102;28;20045;-64
2023/10/05 01:40:58;;;;;;;6.13;2.22;;;;;;;;;;5049725;28;20384;-64
2023/10/05 01:43:25;;;;;;;8.55;2.10;;;;;;;;;;5050436;28;20045;-64
2023/10/05 01:45:51;;;;;;;7.88;2.08;;;;;;;;;;5049607;28;20041;-64
2023/10/05 01:48:24;;;;;;;12.30;2.70;;;;;;;;;;5049711;28;20048;-64
2023/10/05 01:50:50;;;;;;;6.22;2.25;;;;;;;;;;5049832;28;20053;-64
2023/10/05 01:53:17;;;;;;;13.82;2.78;;;;;;;;;;5049902;28;20461;-64
2023/10/05 01:55:45;;;;;;;8.70;2.28;;;;;;;;;;5049190;28;20052;-64
2023/10/05 01:58:17;;;;;;;10.57;2.45;;;;;;;;;;5049936;28;20411;-64
2023/10/05 02:00:43;;;;;;;9.80;2.20;;;;;;;;;;5031983;28;20132;-64
2023/10/05 02:03:11;;;;;;;7.03;2.20;;;;;;;;;;5049410;28;20127;-64
2023/10/05 02:05:37;;;;;;;11.27;2.20;;;;;;;;;;5049551;28;20119;-64
2023/10/05 02:08:04;;;;;;;11.82;2.67;;;;;;;;;;5049778;28;20075;-64
2023/10/05 02:10:34;;;;;;;9.63;2.45;;;;;;;;;;5049122;28;20037;-64
2023/10/05 02:13:01;;;;;;;10.07;2.10;;;;;;;;;;5049782;28;20044;-64
2023/10/05 02:15:30;;;;;;;13.05;2.53;;;;;;;;;;5049590;28;20050;-64
2023/10/05 02:17:59;;;;;;;10.13;2.30;;;;;;;;;;5034838;28;20073;-64
2023/10/05 02:20:51;;;;;;;10.35;2.13;;;;;;;;;;5029480;28;20060;-64
2023/10/05 02:23:24;;;;;;;8.00;2.58;;;;;;;;;;5028663;28;20089;-64
2023/10/05 02:25:56;;;;;;;11.65;1.65;;;;;;;;;;5036764;28;20120;-64
2023/10/05 02:28:33;;;;;;;6.75;2.53;;;;;;;;;;5049623;28;20044;-64
2023/10/05 02:31:00;;;;;;;7.30;2.20;;;;;;;;;;5049474;28;20044;-64
2023/10/05 02:33:27;;;;;;;7.97;2.38;;;;;;;;;;5049121;28;20048;-64
2023/10/05 02:35:56;;;;;;;13.40;2.13;;;;;;;;;;5031497;28;20107;-64
2023/10/05 02:38:23;;;;;;;12.38;2.72;;;;;;;;;;5049482;28;20118;-64
2023/10/05 02:40:54;;;;;;;9.65;2.30;;;;;;;;;;5049228;28;20487;-64
2023/10/05 02:43:29;;;;;;;8.70;1.98;;;;;;;;;;5049380;28;20444;-64
2023/10/05 02:46:09;;;;;;;19.23;2.72;;;;;;;;;;5049222;28;20501;-64
2023/10/05 02:48:36;;;;;;;10.60;2.10;;;;;;;;;;5048893;28;20311;-64
2023/10/05 02:51:05;;;;;;;8.63;3.00;;;;;;;;;;5031339;28;20064;-64
2023/10/05 02:53:40;;;;;;;10.88;2.13;;;;;;;;;;5049319;28;20064;-64
2023/10/05 02:56:33;;;;;;;8.27;2.00;;;;;;;;;;5048932;28;20099;-64
2023/10/05 02:59:07;;;;;;;10.48;2.67;;;;;;;;;;5049501;28;20049;-64
2023/10/05 03:01:33;;;;;;;7.53;2.10;;;;;;;;;;5048903;28;20561;-64
2023/10/05 03:04:04;;;;;;;8.27;2.20;;;;;;;;;;5031388;28;20099;-64
2023/10/05 03:06:30;;;;;;;9.82;2.22;;;;;;;;;;5049032;28;20045;-64
2023/10/05 03:08:59;;;;;;;9.70;2.53;;;;;;;;;;5048821;28;20045;-64
2023/10/05 03:11:25;;;;;;;11.77;2.35;;;;;;;;;;5051688;28;20076;-64
2023/10/05 03:13:51;;;;;;;8.70;2.17;;;;;;;;;;5052934;28;20033;-64
2023/10/05 03:16:21;;;;;;;8.90;2.10;;;;;;;;;;5051558;28;20407;-64
2023/10/05 03:18:49;;;;;;;12.85;2.25;;;;;;;;;;5032718;28;20500;-64
2023/10/05 03:21:17;;;;;;;4.80;2.00;;;;;;;;;;5032941;28;20388;-64
2023/10/05 03:23:43;;;;;;;7.78;2.13;;;;;;;;;;5032479;28;20547;-64
2023/10/05 03:26:11;;;;;;;10.57;2.00;;;;;;;;;;5042581;28;20115;-64
2023/10/05 03:28:37;;;;;;;13.40;2.53;;;;;;;;;;5052676;28;20434;-64
2023/10/05 03:31:06;;;;;;;8.20;2.28;;;;;;;;;;5052505;28;20129;-64
2023/10/05 03:33:33;;;;;;;14.57;2.70;;;;;;;;;;5052574;28;20060;-64
2023/10/05 03:36:06;;;;;;;11.70;2.63;;;;;;;;;;5052374;28;20477;-64
2023/10/05 03:38:32;;;;;;;10.77;2.28;;;;;;;;;;5052097;28;20045;-64
2023/10/05 03:41:03;;;;;;;14.48;2.58;;;;;;;;;;5052278;28;20049;-64
2023/10/05 03:43:31;;;;;;;8.20;1.98;;;;;;;;;;5052349;28;20412;-64
2023/10/05 03:45:57;;;;;;;9.98;2.90;;;;;;;;;;5051804;28;20047;-64
2023/10/05 03:48:26;;;;;;;10.07;2.70;;;;;;;;;;5052324;28;20627;-64
2023/10/05 03:50:52;;;;;;;6.88;2.60;;;;;;;;;;5052081;28;20064;-64
2023/10/05 03:53:18;;;;;;;6.40;2.35;;;;;;;;;;5051699;28;20041;-64
2023/10/05 03:55:47;;;;;;;12.15;2.50;;;;;;;;;;5052031;28;20054;-64
2023/10/05 03:58:16;;;;;;;13.20;2.85;;;;;;;;;;5051808;28;20055;-64
2023/10/05 04:00:42;;;;;;;11.23;2.30;;;;;;;;;;5051310;28;20439;-64
2023/10/05 04:03:08;;;;;;;8.90;2.17;;;;;;;;;;5052052;28;20041;-64
2023/10/05 04:05:39;;;;;;;10.93;2.38;;;;;;;;;;5051611;28;20072;-64
2023/10/05 04:08:16;;;;;;;15.95;2.60;;;;;;;;;;5051396;28;20045;-64
2023/10/05 04:10:46;;;;;;;11.95;2.55;;;;;;;;;;5051861;28;20072;-64
2023/10/05 04:13:14;;;;;;;8.73;2.15;;;;;;;;;;5051755;28;20041;-64
2023/10/05 04:15:40;;;;;;;9.30;2.22;;;;;;;;;;5051217;28;20123;-64
2023/10/05 04:18:16;;;;;;;11.32;2.67;;;;;;;;;;5035957;28;20041;-64
2023/10/05 04:20:43;;;;;;;9.75;3.03;;;;;;;;;;5031807;28;20045;-64
2023/10/05 04:23:10;;;;;;;10.25;2.38;;;;;;;;;;5030038;28;20076;-64
2023/10/05 04:25:36;;;;;;;8.40;2.40;;;;;;;;;;5037116;28;20063;-64
2023/10/05 04:28:03;;;;;;;8.40;2.40;;;;;;;;;;5051511;28;20120;-64
2023/10/05 04:30:29;;;;;;;8.20;2.50;;;;;;;;;;5051471;28;20033;-64
2023/10/05 04:32:55;;;;;;;9.70;2.45;;;;;;;;;;5051421;28;20064;-64
2023/10/05 04:35:26;;;;;;;8.27;2.25;;;;;;;;;;5051299;28;20051;-64
2023/10/05 04:37:54;;;;;;;8.90;2.20;;;;;;;;;;5032948;28;20076;-64
2023/10/05 04:40:23;;;;;;;9.25;2.40;;;;;;;;;;5051210;28;20431;-64
2023/10/05 04:42:52;;;;;;;11.35;2.72;;;;;;;;;;5051280;28;20041;-64
2023/10/05 04:45:23;;;;;;;7.43;2.40;;;;;;;;;;5050760;28;20045;-64
2023/10/05 04:47:49;;;;;;;8.90;2.35;;;;;;;;;;5052367;28;20041;-65
2023/10/05 04:50:17;;;;;;;11.30;2.67;;;;;;;;;;5052147;28;20041;-65
2023/10/05 04:52:50;;;;;;;11.75;3.05;;;;;;;;;;5051660;28;20077;-65
2023/10/05 04:55:30;;;;;;;9.15;3.00;;;;;;;;;;5051884;28;20094;-65
2023/10/05 04:58:14;;;;;;;9.07;2.55;;;;;;;;;;5052180;28;20064;-65
2023/10/05 05:08:32;;;;;;;9.63;2.90;;;;;;;;;;5051944;28;20045;-65
2023/10/05 05:10:58;;;;;;;13.95;2.75;;;;;;;;;;5052564;28;20051;-65
2023/10/05 05:13:27;;;;;;;14.77;2.90;;;;;;;;;;5052089;28;20041;-65
2023/10/05 05:15:53;;;;;;;16.23;2.53;;;;;;;;;;5033714;28;20063;-65
2023/10/05 05:18:19;;;;;;;13.73;2.80;;;;;;;;;;5034545;28;20041;-65
2023/10/05 05:20:46;;;;;;;11.82;2.80;;;;;;;;;;5032260;28;20106;-65
2023/10/05 05:23:16;;;;;;;11.20;2.65;;;;;;;;;;5031505;28;20087;-65
2023/10/05 05:25:44;;;;;;;9.90;2.70;;;;;;;;;;5038336;28;20392;-65
2023/10/05 05:28:10;;;;;;;10.30;2.85;;;;;;;;;;5051910;28;20380;-65
2023/10/05 05:30:36;;;;;;;10.02;2.90;;;;;;;;;;5051593;28;20564;-65
2023/10/05 05:33:12;;;;;;;12.10;2.53;;;;;;;;;;5051486;28;20045;-65
2023/10/05 05:35:43;;;;;;;16.40;2.65;;;;;;;;;;5051419;28;20060;-65
2023/10/05 05:38:09;;;;;;;14.60;2.67;;;;;;;;;;5051546;28;20476;-65
2023/10/05 05:40:37;;;;;;;13.75;2.95;;;;;;;;;;5051208;28;20048;-65
2023/10/05 05:43:11;;;;;;;12.63;2.90;;;;;;;;;;5051606;28;20138;-65
2023/10/05 05:45:43;;;;;;;11.15;2.45;;;;;;;;;;5051119;28;20551;-65
2023/10/05 05:48:13;;;;;;;11.52;2.80;;;;;;;;;;5051718;28;20044;-65
2023/10/05 05:50:43;;;;;;;12.93;3.60;;;;;;;;;;5051473;28;20071;-65
2023/10/05 05:53:11;;;;;;;12.07;3.13;;;;;;;;;;5033125;28;20087;-64
2023/10/05 05:55:43;;;;;;;18.13;3.00;;;;;;;;;;5032169;28;20521;-66
2023/10/05 05:58:14;;;;;;;11.80;2.40;;;;;;;;;;5060846;28;20663;-66
2023/10/05 06:00:40;;;;;;;13.50;2.80;;;;;;;;;;5070503;28;20048;-65
2023/10/05 06:03:11;;;;;;;13.02;3.00;;;;;;;;;;5070902;28;20032;-63
2023/10/05 06:05:37;;;;;;;7.55;2.50;;;;;;;;;;5058768;28;20117;-64
2023/10/05 06:08:03;;;;;;;14.15;2.78;;;;;;;;;;5070697;28;20518;-64
2023/10/05 06:10:34;;;;;;;14.65;2.63;;;;;;;;;;5070891;28;20040;-64
2023/10/05 06:13:01;;;;;;;13.35;2.58;;;;;;;;;;5070835;28;20111;-64
2023/10/05 06:15:27;;;;;;;14.10;2.95;;;;;;;;;;5070285;28;20095;-63
2023/10/05 06:17:53;;;;;;;14.18;2.83;;;;;;;;;;5063848;28;20459;-64
2023/10/05 06:20:19;;;;;;;10.00;2.20;;;;;;;;;;5070789;28;20045;-64
2023/10/05 06:22:47;;;;;;;12.93;2.95;;;;;;;;;;5062582;28;20044;-64
2023/10/05 06:25:15;;;;;;;13.23;3.42;;;;;;;;;;5067696;28;20041;-64
2023/10/05 06:27:43;;;;;;;9.52;2.67;;;;;;;;;;5049534;28;20080;-64
2023/10/05 06:30:13;;;;;;;11.95;3.25;;;;;;;;;;5059143;28;20084;-65
2023/10/05 06:32:39;;;;;;;14.80;3.03;;;;;;;;;;5068285;28;20044;-63
2023/10/05 06:35:09;;;;;;;13.60;2.70;;;;;;;;;;5067042;28;20040;-64
2023/10/05 06:37:37;;;;;;;9.57;2.90;;;;;;;;;;5069915;28;20131;-63
2023/10/05 06:40:09;;;;;;;15.18;2.83;;;;;;;;;;5070669;28;20487;-64
2023/10/05 06:42:39;;;;;;;13.90;3.60;;;;;;;;;;5070469;28;20102;-64
2023/10/05 06:45:07;;;;;;;14.38;2.72;;;;;;;;;;5070587;28;20052;-64
2023/10/05 06:47:35;;;;;;;13.77;3.00;;;;;;;;;;5016844;28;20050;-64
2023/10/05 06:50:03;;;;;;;15.95;3.28;;;;;;;;;;5049268;28;20107;-64
2023/10/05 06:52:29;;;;;;;13.10;2.80;;;;;;;;;;5073895;28;20065;-64
2023/10/05 06:54:55;;;;;;;16.40;3.00;;;;;;;;;;5074319;28;20044;-64
2023/10/05 06:57:22;;;;;;;15.02;3.38;;;;;;;;;;5074241;28;20374;-64
2023/10/05 06:59:48;;;;;;;15.68;3.00;;;;;;;;;;5074236;28;20047;-64
2023/10/05 07:02:14;;;;;;;11.45;3.20;;;;;;;;;;5074348;28;20048;-64
2023/10/05 07:04:40;;;;;;;17.45;2.88;;;;;;;;;;5074251;28;20044;-64
2023/10/05 07:07:06;;;;;;;9.80;2.95;;;;;;;;;;5073623;28;20127;-65
2023/10/05 07:09:32;;;;;;;9.13;2.90;;;;;;;;;;5074201;28;20132;-64
2023/10/05 07:11:58;;;;;;;15.65;2.92;;;;;;;;;;5074316;28;20037;-64
2023/10/05 07:14:25;;;;;;;10.90;2.97;;;;;;;;;;5073350;28;20162;-63
2023/10/05 07:16:51;;;;;;;15.25;3.08;;;;;;;;;;5068799;28;20060;-63
2023/10/05 07:19:17;;;;;;;18.25;3.65;;;;;;;;;;5071024;28;20037;-63
2023/10/05 07:21:44;;;;;;;13.32;3.10;;;;;;;;;;5073474;28;20037;-64
2023/10/05 07:24:10;;;;;;;15.30;3.13;;;;;;;;;;5073578;28;20045;-64
2023/10/05 07:26:37;;;;;;;22.45;4.15;;;;;;;;;;5070556;28;20125;-63
2023/10/05 07:29:04;;;;;;;15.57;3.72;;;;;;;;;;5073576;28;20040;-64
2023/10/05 07:31:30;;;;;;;14.95;3.58;;;;;;;;;;5073386;28;20044;-64
2023/10/05 07:33:57;;;;;;;20.70;4.10;;;;;;;;;;5073658;28;20037;-64
2023/10/05 07:36:23;;;;;;;15.60;3.60;;;;;;;;;;5073148;28;20071;-64
2023/10/05 07:38:49;;;;;;;12.48;3.83;;;;;;;;;;5073779;28;20090;-65
2023/10/05 07:41:16;;;;;;;11.20;3.00;;;;;;;;;;5073434;28;20475;-64
2023/10/05 07:43:44;;;;;;;12.85;3.38;;;;;;;;;;5072768;28;20077;-63
2023/10/05 07:46:11;;;;;;;13.38;3.45;;;;;;;;;;5073230;28;20542;-63
2023/10/05 07:48:37;;;;;;;13.07;3.85;;;;;;;;;;5073533;28;20040;-63
2023/10/05 07:51:04;;;;;;;10.05;3.17;;;;;;;;;;5072615;28;20063;-63
2023/10/05 07:53:31;;;;;;;15.95;3.90;;;;;;;;;;5073040;28;20174;-63
2023/10/05 07:55:57;;;;;;;15.38;3.38;;;;;;;;;;5072951;28;20040;-63
2023/10/05 07:58:23;;;;;;;11.65;3.58;;;;;;;;;;5072711;28;20119;-63
2023/10/05 08:00:49;;;;;;;15.02;3.65;;;;;;;;;;5073340;28;20078;-63
2023/10/05 08:03:15;;;;;;;13.85;3.38;;;;;;;;;;5073220;28;20612;-63
2023/10/05 08:05:41;;;;;;;16.17;3.50;;;;;;;;;;5072419;28;20040;-63
2023/10/05 08:08:07;;;;;;;13.55;2.88;;;;;;;;;;5073118;28;20040;-63
2023/10/05 08:10:33;;;;;;;15.63;3.33;;;;;;;;;;5073005;28;20036;-63
2023/10/05 08:13:03;;;;;;;12.50;3.30;;;;;;;;;;5072674;28;20119;-63
2023/10/05 08:15:29;;;;;;;10.27;3.22;;;;;;;;;;5072837;28;20396;-63
2023/10/05 08:17:56;;;;;;;12.98;3.30;;;;;;;;;;5062478;28;20092;-63
2023/10/05 08:20:24;;;;;;;12.93;3.25;;;;;;;;;;5072524;28;20086;-63
2023/10/05 08:22:50;;;;;;;15.63;3.38;;;;;;;;;;5072508;28;20051;-63
2023/10/05 08:25:16;;;;;;;14.80;3.42;;;;;;;;;;5069798;28;20040;-63
2023/10/05 08:27:42;;;;;;;17.05;3.70;;;;;;;;;;5070853;28;20391;-63
2023/10/05 08:30:10;;;;;;;11.30;3.15;;;;;;;;;;5072460;28;20086;-63
2023/10/05 08:32:37;;;;;;;16.95;3.35;;;;;;;;;;5071443;28;20047;-62
2023/10/05 08:35:12;;;;;;;11.57;3.20;;;;;;;;;;5072122;28;20072;-63
2023/10/05 08:37:42;;;;;;;12.55;3.10;;;;;;;;;;5072264;28;20102;-63
2023/10/05 08:40:40;;;;;;;19.65;3.85;;;;;;;;;;5072294;28;20548;-63
2023/10/05 08:43:10;;;;;;;18.60;3.72;;;;;;;;;;5071337;28;20622;-63
2023/10/05 08:45:45;;;;;;;13.52;3.95;;;;;;;;;;5071954;28;20049;-64
2023/10/05 08:48:12;;;;;;;14.30;3.15;;;;;;;;;;5072385;28;20045;-63
2023/10/05 08:50:42;;;;;;;12.10;2.80;;;;;;;;;;5044276;28;20053;-58
2023/10/05 08:53:13;;;;;;;18.27;3.55;;;;;;;;;;5051951;28;20484;-62
2023/10/05 08:55:40;;;;;;;10.05;3.10;;;;;;;;;;5051047;28;20040;-60
2023/10/05 08:58:09;;;;;;;17.70;3.63;;;;;;;;;;5071529;28;20076;-61
2023/10/05 09:00:38;;;;;;;16.98;3.65;;;;;;;;;;5072013;28;20552;-61
2023/10/05 09:03:28;;;;;;;14.63;3.53;;;;;;;;;;5071261;28;20040;-61
2023/10/05 09:06:20;;;;;;;13.93;4.40;;;;;;;;;;5070405;28;20483;-61
2023/10/05 09:09:14;;;;;;;13.75;4.07;;;;;;;;;;5071342;28;20037;-63
2023/10/05 09:11:39;;;;;;;18.50;3.55;;;;;;;;;;5069787;28;20892;-60
2023/10/05 09:14:12;;;;;;;14.15;2.95;;;;;;;;;;5071524;28;20040;-61
2023/10/05 09:16:42;;;;;;;18.30;3.25;;;;;;;;;;5062512;28;20033;-61
2023/10/05 09:19:09;;;;;;;20.92;3.15;;;;;;;;;;5055797;28;20048;-62
2023/10/05 09:21:51;;;;;;;15.30;3.42;;;;;;;;;;5033465;28;20397;-61
2023/10/05 09:24:20;;;;;;;15.38;3.30;;;;;;;;;;5031586;28;20041;-60
2023/10/05 09:26:50;;;;;;;12.07;3.50;;;;;;;;;;5049072;28;20094;-61
2023/10/05 09:29:23;;;;;;;14.32;3.33;;;;;;;;;;5052431;28;20072;-62
2023/10/05 09:31:50;;;;;;;20.00;3.70;;;;;;;;;;5068334;28;20051;-62
2023/10/05 09:34:20;;;;;;;18.60;3.60;;;;;;;;;;5070775;28;20544;-61
2023/10/05 09:36:46;;;;;;;10.80;3.35;;;;;;;;;;5070942;28;20067;-62
2023/10/05 09:39:14;;;;;;;16.50;4.00;;;;;;;;;;5071092;28;20048;-62
2023/10/05 09:41:42;;;;;;;13.35;3.30;;;;;;;;;;5070479;28;20040;-62
2023/10/05 09:44:15;;;;;;;10.43;2.97;;;;;;;;;;5070735;28;20036;-63
2023/10/05 09:46:43;;;;;;;19.25;3.58;;;;;;;;;;5070857;28;20041;-62
2023/10/05 09:49:14;;;;;;;16.45;4.88;;;;;;;;;;5070590;28;20049;-63
2023/10/05 09:51:43;;;;;;;12.82;3.33;;;;;;;;;;5070462;28;20106;-63
2023/10/05 09:54:10;;;;;;;15.93;3.67;;;;;;;;;;5070628;28;20391;-62
2023/10/05 09:56:41;;;;;;;14.40;3.65;;;;;;;;;;5070603;28;20048;-63
2023/10/05 09:59:15;;;;;;;16.02;3.33;;;;;;;;;;5052911;28;20050;-64
2023/10/05 10:01:42;;;;;;;9.90;2.95;;;;;;;;;;5064883;28;20064;-64
2023/10/05 10:04:09;;;;;;;19.70;3.72;;;;;;;;;;5050618;28;20048;-63
2023/10/05 10:06:36;;;;;;;14.63;3.00;;;;;;;;;;5070576;28;20047;-63
2023/10/05 10:09:11;;;;;;;13.85;3.55;;;;;;;;;;5070820;28;20040;-62
2023/10/05 10:11:37;;;;;;;14.00;3.47;;;;;;;;;;5070067;28;20403;-62
2023/10/05 10:14:10;;;;;;;14.57;3.50;;;;;;;;;;5070300;28;20140;-62
2023/10/05 10:16:43;;;;;;;13.55;3.28;;;;;;;;;;5048843;28;20083;-62
2023/10/05 10:19:23;;;;;;;15.13;3.33;;;;;;;;;;5060679;28;20498;-63
2023/10/05 10:21:53;;;;;;;17.45;3.80;;;;;;;;;;5070413;28;20083;-62
2023/10/05 10:24:19;;;;;;;17.58;3.22;;;;;;;;;;5052452;28;20045;-62
2023/10/05 10:26:48;;;;;;;16.70;3.05;;;;;;;;;;5061877;28;20039;-62
2023/10/05 10:29:22;;;;;;;14.55;3.28;;;;;;;;;;5070429;28;20040;-62
2023/10/05 10:32:08;;;;;;;13.23;3.13;;;;;;;;;;5070075;28;20044;-63
2023/10/05 10:34:49;;;;;;;10.98;2.78;;;;;;;;;;5056844;28;20140;-63
2023/10/05 10:37:36;;;;;;;19.73;4.20;;;;;;;;;;5070447;28;20037;-61
2023/10/05 10:40:11;;;;;;;14.43;3.13;;;;;;;;;;5069838;28;20386;-62
2023/10/05 10:42:47;;;;;;;16.45;3.33;;;;;;;;;;5070345;28;20094;-64
2023/10/05 10:45:16;;;;;;;13.05;3.67;;;;;;;;;;5059181;28;20044;-63
2023/10/05 10:47:48;;;;;;;13.85;3.20;;;;;;;;;;5063647;28;20048;-61
2023/10/05 10:50:16;;;;;;;;;;;;;;;;;;5070243;28;20041;-62
2023/10/05 10:52:45;;;;;;;12.32;3.72;;;;;;;;;;5070408;28;20562;-59
2023/10/05 10:55:14;;;;;;;17.00;3.83;;;;;;;;;;5069539;28;20066;-61
2023/10/05 10:57:44;;;;;;;18.17;3.60;;;;;;;;;;5053059;28;20623;-61
2023/10/05 11:00:38;;;;;;;12.18;4.18;;;;;;;;;;5049557;28;20052;-62
2023/10/05 11:03:11;;;;;;;14.98;3.83;;;;;;;;;;5057913;28;20040;-62
2023/10/05 11:05:39;;;;;;;11.77;4.15;;;;;;;;;;5069516;28;20067;-63
2023/10/05 11:08:08;;;;;;;14.13;3.53;;;;;;;;;;5069851;28;20043;-63
2023/10/05 11:10:34;;;;;;;19.40;3.92;;;;;;;;;;5069560;28;20036;-61
2023/10/05 11:13:18;;;;;;;16.55;3.92;;;;;;;;;;5069698;28;20119;-62
2023/10/05 11:15:59;;;;;;;13.75;4.03;;;;;;;;;;5069686;28;20072;-62
2023/10/05 11:18:39;;;;;;;15.20;4.13;;;;;;;;;;5054251;28;20044;-63
2023/10/05 11:21:18;;;;;;;11.88;3.65;;;;;;;;;;5070533;28;20741;-62
2023/10/05 11:23:45;;;;;;;10.85;3.80;;;;;;;;;;5070049;28;20115;-62
2023/10/05 11:26:17;;;;;;;12.63;3.47;;;;;;;;;;5059883;28;20052;-61
2023/10/05 11:28:49;;;;;;;21.80;4.07;;;;;;;;;;5070323;28;20075;-62
2023/10/05 11:31:21;;;;;;;12.45;3.70;;;;;;;;;;5070656;28;20107;-62
2023/10/05 11:33:49;;;;;;;17.33;4.38;;;;;;;;;;5073498;28;20051;-61
2023/10/05 11:36:17;;;;;;;11.40;3.65;;;;;;;;;;5073072;28;20049;-61
2023/10/05 11:38:44;;;;;;;14.02;3.55;;;;;;;;;;5073525;28;20041;-62
2023/10/05 11:41:16;;;;;;;12.18;4.07;;;;;;;;;;5073271;28;20049;-63
2023/10/05 11:43:43;;;;;;;14.93;4.18;;;;;;;;;;5073289;28;20088;-61
2023/10/05 11:46:17;;;;;;;10.40;3.88;;;;;;;;;;5073514;28;20048;-60
2023/10/05 11:49:05;;;;;;;14.57;3.63;;;;;;;;;;5033033;28;20716;-60
2023/10/05 11:54:16;;;;;;;12.75;3.63;;;;;;;;;;5052787;28;20218;-63
2023/10/05 11:56:42;;;;;;;11.93;3.75;;;;;;;;;;5053493;28;20041;-63
2023/10/05 11:59:10;;;;;;;14.52;3.63;;;;;;;;;;5053432;28;20094;-63
2023/10/05 12:01:40;;;;;;;12.32;3.50;;;;;;;;;;5053087;28;20135;-63
2023/10/05 12:04:07;;;;;;;18.73;3.75;;;;;;;;;;5068740;28;20056;-63
2023/10/05 12:06:33;;;;;;;14.20;3.75;;;;;;;;;;5073112;28;20044;-62
2023/10/05 12:11:46;;;;;;;9.38;3.50;;;;;;;;;;5072998;28;20053;-63
2023/10/05 12:14:16;;;;;;;12.43;4.07;;;;;;;;;;5072983;28;20044;-62
2023/10/05 12:16:42;;;;;;;13.93;3.47;;;;;;;;;;5068611;28;20045;-61
2023/10/05 12:19:15;;;;;;;15.57;3.28;;;;;;;;;;5059469;28;20414;-62
2023/10/05 12:21:42;;;;;;;7.88;2.60;;;;;;;;;;5073130;28;20442;-62
2023/10/05 12:24:10;;;;;;;9.05;2.42;;;;;;;;;;5072453;28;20036;-63
2023/10/05 12:26:37;;;;;;;17.23;3.22;;;;;;;;;;5061009;28;20120;-62
2023/10/05 12:29:03;;;;;;;12.23;2.80;;;;;;;;;;5073054;28;20035;-62
2023/10/05 12:31:29;;;;;;;13.40;2.67;;;;;;;;;;5072215;28;20087;-62
2023/10/05 12:33:55;;;;;;;10.90;2.78;;;;;;;;;;5072851;28;20130;-62
2023/10/05 12:36:22;;;;;;;12.75;2.75;;;;;;;;;;5072156;28;20123;-61
2023/10/05 12:38:48;;;;;;;10.63;2.65;;;;;;;;;;5055712;28;20044;-62
2023/10/05 12:41:14;;;;;;;13.32;2.67;;;;;;;;;;5072363;28;20040;-62
2023/10/05 12:43:42;;;;;;;9.27;2.10;;;;;;;;;;5071243;28;20370;-62
2023/10/05 12:46:10;;;;;;;10.32;2.58;;;;;;;;;;5071995;28;20083;-62
2023/10/05 12:48:39;;;;;;;11.98;2.75;;;;;;;;;;5072370;28;20044;-62
2023/10/05 12:51:06;;;;;;;10.93;2.60;;;;;;;;;;5071705;28;20186;-62
2023/10/05 12:53:33;;;;;;;11.90;2.20;;;;;;;;;;5071960;28;20122;-62
2023/10/05 12:56:01;;;;;;;13.38;2.85;;;;;;;;;;5071563;28;20040;-62
2023/10/05 12:58:27;;;;;;;11.30;2.63;;;;;;;;;;5072126;28;20101;-63
2023/10/05 13:00:54;;;;;;;13.23;2.58;;;;;;;;;;5056746;28;20051;-62
2023/10/05 13:03:24;;;;;;;11.10;2.55;;;;;;;;;;5059486;28;20048;-62
2023/10/05 13:05:51;;;;;;;8.45;2.05;;;;;;;;;;5071757;28;20047;-62
2023/10/05 13:08:17;;;;;;;6.43;2.13;;;;;;;;;;5071351;28;20094;-62
2023/10/05 13:10:44;;;;;;;6.82;2.40;;;;;;;;;;5072029;28;20112;-62
2023/10/05 13:13:17;;;;;;;8.35;2.40;;;;;;;;;;5071722;28;20044;-62
2023/10/05 13:15:43;;;;;;;10.07;2.45;;;;;;;;;;5061044;28;20693;-63
2023/10/05 13:18:17;;;;;;;9.48;2.60;;;;;;;;;;5035920;28;20120;-63
2023/10/05 13:20:47;;;;;;;13.50;2.65;;;;;;;;;;5054764;28;20099;-63
2023/10/05 13:23:15;;;;;;;9.80;2.58;;;;;;;;;;5057124;28;20052;-63
2023/10/05 13:25:45;;;;;;;10.23;3.15;;;;;;;;;;5047093;28;20075;-63
2023/10/05 13:28:11;;;;;;;9.48;2.35;;;;;;;;;;5065195;28;20613;-62
2023/10/05 13:30:46;;;;;;;11.65;3.00;;;;;;;;;;5071222;28;20043;-62
2023/10/05 13:33:21;;;;;;;9.15;2.40;;;;;;;;;;5071605;28;20048;-63
2023/10/05 13:35:48;;;;;;;9.05;2.60;;;;;;;;;;5071286;28;20399;-63
2023/10/05 13:38:17;;;;;;;10.07;2.17;;;;;;;;;;5071111;28;20044;-63
2023/10/05 13:41:13;;;;;;;5.00;1.55;;;;;;;;;;5071329;28;20036;-63
2023/10/05 13:43:39;;;;;;;12.32;2.40;;;;;;;;;;5071142;28;20040;-61
2023/10/05 13:46:19;;;;;;;11.00;1.83;;;;;;;;;;5070933;28;20036;-63
2023/10/05 13:48:48;;;;;;;8.60;2.35;;;;;;;;;;5071020;28;20059;-63
2023/10/05 13:51:19;;;;;;;8.70;2.30;;;;;;;;;;5070710;28;20070;-63
2023/10/05 13:53:46;;;;;;;12.10;2.15;;;;;;;;;;5070295;28;20110;-62
2023/10/05 13:56:13;;;;;;;7.85;2.17;;;;;;;;;;5070718;28;20048;-62
2023/10/05 13:58:43;;;;;;;12.10;2.40;;;;;;;;;;5071248;28;20127;-62
2023/10/05 14:01:23;;;;;;;10.82;2.10;;;;;;;;;;5070651;28;20041;-62
2023/10/05 14:03:50;;;;;;;9.10;2.10;;;;;;;;;;5071137;28;20076;-62
2023/10/05 14:06:17;;;;;;;5.75;1.92;;;;;;;;;;5070949;28;20070;-62
2023/10/05 14:08:46;;;;;;;6.28;2.20;;;;;;;;;;5070662;28;20032;-62
2023/10/05 14:11:13;;;;;;;11.93;2.28;;;;;;;;;;5070979;28;20052;-62
2023/10/05 14:13:39;;;;;;;8.77;2.05;;;;;;;;;;5071222;28;20068;-63
2023/10/05 14:16:05;;;;;;;7.15;2.30;;;;;;;;;;5070122;28;20117;-63
2023/10/05 14:18:33;;;;;;;8.40;2.20;;;;;;;;;;5052053;28;20124;-62
2023/10/05 14:21:02;;;;;;;13.18;2.50;;;;;;;;;;5069585;28;20376;-62
2023/10/05 14:23:29;;;;;;;8.27;2.40;;;;;;;;;;5070356;28;20040;-62
2023/10/05 14:25:55;;;;;;;8.20;2.35;;;;;;;;;;5062426;28;20479;-62
2023/10/05 14:28:23;;;;;;;10.85;2.35;;;;;;;;;;5064062;28;20483;-63
2023/10/05 14:30:50;;;;;;;8.02;2.03;;;;;;;;;;5070408;28;20040;-63
2023/10/05 14:33:17;;;;;;;9.65;2.20;;;;;;;;;;5070971;28;20426;-63
2023/10/05 14:35:44;;;;;;;10.45;2.55;;;;;;;;;;5070463;28;20098;-63
2023/10/05 14:38:10;;;;;;;8.45;1.90;;;;;;;;;;5070365;28;20124;-63
2023/10/05 14:40:39;;;;;;;6.18;1.75;;;;;;;;;;5052842;28;20049;-63
2023/10/05 14:43:06;;;;;;;7.15;1.85;;;;;;;;;;5070844;28;20052;-63
2023/10/05 14:45:32;;;;;;;9.02;2.55;;;;;;;;;;5070551;28;20360;-63
2023/10/05 14:48:04;;;;;;;8.45;2.33;;;;;;;;;;5070810;28;20044;-63
2023/10/05 14:50:32;;;;;;;9.45;2.00;;;;;;;;;;5070704;28;20487;-63
2023/10/05 14:52:59;;;;;;;11.05;2.45;;;;;;;;;;5070490;28;20097;-63
2023/10/05 14:55:28;;;;;;;9.57;2.08;;;;;;;;;;5070905;28;20044;-63
2023/10/05 14:57:55;;;;;;;10.77;2.03;;;;;;;;;;5070486;28;20051;-63
2023/10/05 15:00:23;;;;;;;9.50;1.92;;;;;;;;;;5070529;28;20567;-63
2023/10/05 15:02:49;;;;;;;8.05;2.10;;;;;;;;;;5070767;28;20178;-63